Eaton Rapids, Michigan
Current Conditions -  °F | °C
As of 8:55 PM on Sunday 21 Dec 2014 (Local Time) from KFPK Reporting Station
Haze Haze  
Wind Chill: 29°   Ceiling: Unl
Heat Index: 29°   Visibility: 5mi
Dew Point: 26°   Wind: 3mph
Humidity: 86%   Direction: 130°SE
Pressure: 30.15"   Gusts: NA
Location:  42.51°N, 84.66°W
Report Text: KFPK 220155Z AUTO 13003KT 5SM BR CLR M02/M04 A3015 RMK AO2 T10161036
Loading
Personal Weather Stations






























Interactive Weather Map New forecast layout! Learn more

10-Day Weather Forecast

Advertisements
Track Severe Weather on mobile